createdAt,value
2022-10-23T03:59:10.390Z,1008.48
2022-10-23T04:00:10.349Z,1008.46
2022-10-23T04:01:10.409Z,1008.45
2022-10-23T04:02:10.449Z,1008.44
2022-10-23T04:03:08.737Z,1008.41
2022-10-23T04:04:08.735Z,1008.43
2022-10-23T04:05:10.367Z,1008.40
2022-10-23T04:06:09.734Z,1008.38
2022-10-23T04:07:08.720Z,1008.35
2022-10-23T04:08:08.709Z,1008.30
2022-10-23T04:09:08.790Z,1008.29
2022-10-23T04:10:10.381Z,1008.26
2022-10-23T04:11:08.699Z,1008.27
2022-10-23T04:12:10.379Z,1008.26
2022-10-23T04:13:08.689Z,1008.24
2022-10-23T04:14:10.371Z,1008.18
2022-10-23T04:15:09.730Z,1008.19
2022-10-23T04:16:10.382Z,1008.18
2022-10-23T04:17:09.685Z,1008.20
2022-10-23T04:18:10.366Z,1008.19
2022-10-23T04:19:09.887Z,1008.22
2022-10-23T04:20:08.667Z,1008.25
2022-10-23T04:21:10.390Z,1008.24
2022-10-23T04:22:08.657Z,1008.21
2022-10-23T04:23:08.649Z,1008.20
2022-10-23T04:24:08.635Z,1008.17
2022-10-23T04:25:08.654Z,1008.14
2022-10-23T04:26:10.384Z,1008.16
2022-10-23T04:27:08.631Z,1008.16
2022-10-23T04:28:10.886Z,1008.18
2022-10-23T04:29:08.622Z,1008.18
2022-10-23T04:30:08.618Z,1008.20
2022-10-23T04:31:08.646Z,1008.20
2022-10-23T04:32:10.392Z,1008.18
2022-10-23T04:33:08.633Z,1008.16
2022-10-23T04:34:10.396Z,1008.14
2022-10-23T04:35:08.634Z,1008.12
2022-10-23T04:36:10.413Z,1008.20
2022-10-23T04:37:10.372Z,1008.16
2022-10-23T04:38:10.404Z,1008.21
2022-10-23T04:39:10.389Z,1008.17
2022-10-23T04:40:10.390Z,1008.21
2022-10-23T04:41:10.384Z,1008.21
2022-10-23T04:42:10.401Z,1008.18
2022-10-23T04:43:10.400Z,1008.19
2022-10-23T04:44:10.387Z,1008.17
2022-10-23T04:45:10.406Z,1008.16
2022-10-23T04:46:10.422Z,1008.12
2022-10-23T04:47:10.388Z,1008.11
2022-10-23T04:48:10.389Z,1008.08
2022-10-23T04:49:08.569Z,1008.05
2022-10-23T04:50:10.417Z,1008.01
2022-10-23T04:51:10.398Z,1008.01
2022-10-23T04:52:10.413Z,1008.00
2022-10-23T04:53:10.410Z,1008.03
2022-10-23T04:54:10.407Z,1008.04
2022-10-23T04:55:10.416Z,1008.09
2022-10-23T04:56:10.413Z,1008.06
2022-10-23T04:57:10.420Z,1008.06
2022-10-23T04:58:10.399Z,1008.08
2022-10-23T04:59:10.418Z,1008.04
2022-10-23T05:00:10.435Z,1008.06
2022-10-23T05:01:10.557Z,1008.06
2022-10-23T05:02:08.537Z,1008.03
2022-10-23T05:03:08.512Z,1008.05
2022-10-23T05:04:08.505Z,1008.01
2022-10-23T05:05:08.499Z,1008.02
2022-10-23T05:06:10.419Z,1008.03
2022-10-23T05:07:08.521Z,1008.05
2022-10-23T05:08:08.496Z,1008.05
2022-10-23T05:09:10.411Z,1008.01
2022-10-23T05:10:10.406Z,1008.01
2022-10-23T05:11:10.425Z,1007.99
2022-10-23T05:12:10.415Z,1007.98
2022-10-23T05:13:10.409Z,1007.95
2022-10-23T05:14:10.430Z,1007.92
2022-10-23T05:15:10.414Z,1007.92
2022-10-23T05:16:10.416Z,1007.88
2022-10-23T05:17:10.430Z,1007.86
2022-10-23T05:18:10.436Z,1007.88
2022-10-23T05:19:10.451Z,1007.86
2022-10-23T05:20:08.468Z,1007.85
2022-10-23T05:21:08.459Z,1007.88
2022-10-23T05:22:10.438Z,1007.91
2022-10-23T05:23:09.932Z,1007.87
2022-10-23T05:24:08.448Z,1007.91
2022-10-23T05:25:08.439Z,1007.88
2022-10-23T05:26:08.430Z,1007.84
2022-10-23T05:27:09.932Z,1007.84
2022-10-23T05:28:08.426Z,1007.81
2022-10-23T05:29:08.430Z,1007.78
2022-10-23T05:30:08.443Z,1007.78
2022-10-23T05:31:08.428Z,1007.74
2022-10-23T05:32:09.992Z,1007.75
2022-10-23T05:33:08.413Z,1007.70
2022-10-23T05:34:11.218Z,1007.72
2022-10-23T05:35:09.945Z,1007.77
2022-10-23T05:36:08.407Z,1007.69
2022-10-23T05:37:08.399Z,1007.70
2022-10-23T05:38:09.946Z,1007.72
2022-10-23T05:39:08.414Z,1007.71
2022-10-23T05:40:08.387Z,1007.69
2022-10-23T05:41:08.427Z,1007.68
2022-10-23T05:42:09.930Z,1007.68
2022-10-23T05:43:09.949Z,1007.65
2022-10-23T05:44:08.378Z,1007.63
2022-10-23T05:45:09.954Z,1007.57
2022-10-23T05:46:08.379Z,1007.54
2022-10-23T05:47:09.935Z,1007.57
2022-10-23T05:48:22.216Z,1007.56
2022-10-23T05:49:09.376Z,1007.49
2022-10-23T05:50:09.965Z,1007.47
2022-10-23T05:51:09.970Z,1007.55
2022-10-23T05:52:08.363Z,1007.51
2022-10-23T05:53:09.966Z,1007.47
2022-10-23T05:54:08.347Z,1007.49
2022-10-23T05:55:09.960Z,1007.49
2022-10-23T05:56:09.947Z,1007.48
2022-10-23T05:57:09.987Z,1007.52
2022-10-23T05:58:09.944Z,1007.46
2022-10-23T05:59:09.963Z,1007.45
2022-10-23T06:00:09.981Z,1007.45
2022-10-23T06:01:10.042Z,1007.43
2022-10-23T06:02:10.018Z,1007.45
2022-10-23T06:03:08.318Z,1007.45
2022-10-23T06:04:09.970Z,1007.47
2022-10-23T06:05:08.317Z,1007.42
2022-10-23T06:06:08.331Z,1007.42
2022-10-23T06:07:08.302Z,1007.42
2022-10-23T06:08:08.305Z,1007.44
2022-10-23T06:09:09.966Z,1007.42
2022-10-23T06:10:09.330Z,1007.41
2022-10-23T06:11:09.986Z,1007.39
2022-10-23T06:12:09.957Z,1007.41
2022-10-23T06:13:09.978Z,1007.34
2022-10-23T06:14:09.973Z,1007.35
2022-10-23T06:15:10.401Z,1007.36
2022-10-23T06:16:10.056Z,1007.40
2022-10-23T06:17:09.977Z,1007.41
2022-10-23T06:18:10.017Z,1007.44
2022-10-23T06:19:09.978Z,1007.43
2022-10-23T06:20:09.988Z,1007.38
2022-10-23T06:21:10.005Z,1007.43
2022-10-23T06:22:10.029Z,1007.39
2022-10-23T06:23:09.979Z,1007.42
2022-10-23T06:24:09.971Z,1007.43
2022-10-23T06:25:09.985Z,1007.45
2022-10-23T06:26:09.981Z,1007.43
2022-10-23T06:27:09.985Z,1007.41
2022-10-23T06:28:09.980Z,1007.43
2022-10-23T06:29:10.033Z,1007.41
2022-10-23T06:30:09.975Z,1007.39
2022-10-23T06:31:10.250Z,1007.41
2022-10-23T06:32:09.998Z,1007.37
2022-10-23T06:33:09.986Z,1007.38
2022-10-23T06:34:09.996Z,1007.38
2022-10-23T06:35:10.061Z,1007.37
2022-10-23T06:36:09.992Z,1007.37
2022-10-23T06:37:08.269Z,1007.30
2022-10-23T06:38:08.211Z,1007.30
2022-10-23T06:39:08.203Z,1007.29
2022-10-23T06:40:08.223Z,1007.27
2022-10-23T06:41:09.998Z,1007.30
2022-10-23T06:42:08.200Z,1007.29
2022-10-23T06:43:09.987Z,1007.28
2022-10-23T06:44:09.980Z,1007.30
2022-10-23T06:45:10.004Z,1007.27
2022-10-23T06:46:09.992Z,1007.27
2022-10-23T06:47:10.039Z,1007.29
2022-10-23T06:48:10.049Z,1007.31
2022-10-23T06:49:09.994Z,1007.32
2022-10-23T06:50:11.788Z,1007.29
2022-10-23T06:51:10.005Z,1007.35
2022-10-23T06:52:14.375Z,1007.31
2022-10-23T06:53:10.001Z,1007.34
2022-10-23T06:54:08.153Z,1007.30
2022-10-23T06:55:10.010Z,1007.30
2022-10-23T06:56:10.003Z,1007.34
2022-10-23T06:57:09.993Z,1007.30
2022-10-23T06:58:10.019Z,1007.28
2022-10-23T06:59:09.990Z,1007.27
2022-10-23T07:00:10.009Z,1007.27
2022-10-23T07:01:10.192Z,1007.23
2022-10-23T07:02:10.005Z,1007.22
2022-10-23T07:03:10.013Z,1007.21
2022-10-23T07:04:10.030Z,1007.24
2022-10-23T07:05:12.820Z,1007.27
2022-10-23T07:06:08.242Z,1007.31
2022-10-23T07:07:08.111Z,1007.32
2022-10-23T07:08:08.117Z,1007.37
2022-10-23T07:09:10.036Z,1007.39
2022-10-23T07:10:08.159Z,1007.37
2022-10-23T07:11:09.534Z,1007.41
2022-10-23T07:12:08.121Z,1007.40
2022-10-23T07:13:10.030Z,1007.38
2022-10-23T07:14:08.107Z,1007.42
2022-10-23T07:15:08.108Z,1007.42
2022-10-23T07:16:10.017Z,1007.44
2022-10-23T07:17:08.085Z,1007.46
2022-10-23T07:18:10.029Z,1007.44
2022-10-23T07:19:09.543Z,1007.43
2022-10-23T07:20:08.078Z,1007.46
2022-10-23T07:21:10.037Z,1007.49
2022-10-23T07:22:09.722Z,1007.49
2022-10-23T07:23:10.021Z,1007.51
2022-10-23T07:24:08.063Z,1007.51
2022-10-23T07:25:10.042Z,1007.50
2022-10-23T07:26:10.036Z,1007.50
2022-10-23T07:27:10.025Z,1007.49
2022-10-23T07:28:10.063Z,1007.51
2022-10-23T07:29:10.025Z,1007.53
2022-10-23T07:30:10.044Z,1007.53
2022-10-23T07:31:09.541Z,1007.55
2022-10-23T07:32:10.027Z,1007.51
2022-10-23T07:33:09.052Z,1007.50
2022-10-23T07:34:09.569Z,1007.49
2022-10-23T07:35:09.590Z,1007.42
2022-10-23T07:36:09.542Z,1007.40
2022-10-23T07:37:09.530Z,1007.42
2022-10-23T07:38:09.542Z,1007.39
2022-10-23T07:39:09.551Z,1007.44
2022-10-23T07:40:09.580Z,1007.41
2022-10-23T07:41:11.683Z,1007.42
2022-10-23T07:42:09.536Z,1007.44
2022-10-23T07:43:09.551Z,1007.40
2022-10-23T07:44:08.005Z,1007.43
2022-10-23T07:45:09.550Z,1007.42
2022-10-23T07:46:09.548Z,1007.41
2022-10-23T07:47:09.537Z,1007.38
2022-10-23T07:48:09.539Z,1007.36
2022-10-23T07:49:09.559Z,1007.36
2022-10-23T07:50:09.547Z,1007.32
2022-10-23T07:51:09.589Z,1007.34
2022-10-23T07:52:07.994Z,1007.26
2022-10-23T07:53:09.552Z,1007.26
2022-10-23T07:54:09.559Z,1007.31
2022-10-23T07:55:09.560Z,1007.25
2022-10-23T07:56:09.561Z,1007.24
2022-10-23T07:57:09.556Z,1007.30
2022-10-23T07:58:09.547Z,1007.25
2022-10-23T07:59:09.558Z,1007.23
2022-10-23T08:00:09.612Z,1007.22
2022-10-23T08:01:09.595Z,1007.17
2022-10-23T08:02:09.616Z,1007.18
2022-10-23T08:03:07.950Z,1007.14
2022-10-23T08:04:07.947Z,1007.10
2022-10-23T08:05:07.953Z,1007.08
2022-10-23T08:06:09.066Z,1007.03
2022-10-23T08:07:07.955Z,1007.01
2022-10-23T08:08:07.950Z,1007.00
2022-10-23T08:09:07.947Z,1006.99
2022-10-23T08:10:07.939Z,1006.98
2022-10-23T08:11:09.075Z,1006.98
2022-10-23T08:12:07.927Z,1006.98
2022-10-23T08:13:07.965Z,1006.98
2022-10-23T08:14:07.930Z,1006.99
2022-10-23T08:15:09.579Z,1007.01
2022-10-23T08:16:07.936Z,1007.05
2022-10-23T08:17:09.626Z,1007.06
2022-10-23T08:18:09.561Z,1007.05
2022-10-23T08:19:09.586Z,1007.01
2022-10-23T08:20:09.586Z,1007.00
2022-10-23T08:21:09.574Z,1007.02
2022-10-23T08:22:07.899Z,1007.02
2022-10-23T08:23:09.603Z,1006.96
2022-10-23T08:24:07.910Z,1006.95
2022-10-23T08:25:09.658Z,1006.91
2022-10-23T08:26:09.616Z,1006.90
2022-10-23T08:27:09.580Z,1006.89
2022-10-23T08:28:09.600Z,1006.94
2022-10-23T08:29:09.585Z,1006.99
2022-10-23T08:30:09.580Z,1007.02
2022-10-23T08:31:09.092Z,1007.02
2022-10-23T08:32:07.876Z,1007.02
2022-10-23T08:33:09.578Z,1007.00
2022-10-23T08:34:09.590Z,1006.99
2022-10-23T08:35:09.581Z,1007.02
2022-10-23T08:36:09.592Z,1007.05
2022-10-23T08:37:09.579Z,1007.05
2022-10-23T08:38:09.596Z,1007.02
2022-10-23T08:39:07.859Z,1007.03
2022-10-23T08:40:08.877Z,1007.00
2022-10-23T08:41:09.110Z,1006.97
2022-10-23T08:42:07.887Z,1006.97
2022-10-23T08:43:07.848Z,1006.92
2022-10-23T08:44:09.603Z,1006.92
2022-10-23T08:45:07.864Z,1006.95
2022-10-23T08:46:09.392Z,1006.92
2022-10-23T08:47:07.842Z,1006.90
2022-10-23T08:48:07.832Z,1006.89
2022-10-23T08:49:09.647Z,1006.95
2022-10-23T08:50:07.841Z,1006.92
2022-10-23T08:51:07.846Z,1006.95
2022-10-23T08:52:13.184Z,1006.94
2022-10-23T08:53:08.825Z,1006.93
2022-10-23T08:54:09.620Z,1006.93
2022-10-23T08:55:08.831Z,1006.91
2022-10-23T08:56:09.620Z,1006.94
2022-10-23T08:57:09.611Z,1006.94
2022-10-23T08:58:09.602Z,1006.94
2022-10-23T08:59:09.599Z,1006.93
2022-10-23T09:00:09.632Z,1006.92
2022-10-23T09:01:09.682Z,1006.96
2022-10-23T09:02:09.727Z,1006.95
2022-10-23T09:03:09.603Z,1006.92
2022-10-23T09:04:09.599Z,1006.92
2022-10-23T09:05:09.618Z,1007.00
2022-10-23T09:06:09.605Z,1006.99
2022-10-23T09:08:09.613Z,1006.95
2022-10-23T09:09:09.629Z,1006.97
2022-10-23T09:10:08.830Z,1006.91
2022-10-23T09:11:09.622Z,1006.87
2022-10-23T09:12:09.637Z,1006.88
2022-10-23T09:13:09.631Z,1006.85
2022-10-23T09:14:07.781Z,1006.79
2022-10-23T09:15:07.792Z,1006.80
2022-10-23T09:16:07.780Z,1006.81
2022-10-23T09:17:07.848Z,1006.78
2022-10-23T09:18:09.641Z,1006.76
2022-10-23T09:19:12.007Z,1006.75
2022-10-23T09:20:09.620Z,1006.76
2022-10-23T09:21:09.622Z,1006.71
2022-10-23T09:22:07.785Z,1006.72
2022-10-23T09:23:09.636Z,1006.73
2022-10-23T09:24:09.638Z,1006.74
2022-10-23T09:25:09.641Z,1006.72
2022-10-23T09:26:09.623Z,1006.74
2022-10-23T09:27:09.620Z,1006.76
2022-10-23T09:28:09.636Z,1006.77
2022-10-23T09:29:09.636Z,1006.82
2022-10-23T09:30:09.668Z,1006.79
2022-10-23T09:31:09.653Z,1006.81
2022-10-23T09:32:09.636Z,1006.82
2022-10-23T09:33:09.641Z,1006.75
2022-10-23T09:34:11.700Z,1006.78
2022-10-23T09:35:09.633Z,1006.69
2022-10-23T09:36:09.651Z,1006.68
2022-10-23T09:37:09.646Z,1006.65
2022-10-23T09:38:09.632Z,1006.61
2022-10-23T09:39:09.648Z,1006.55
2022-10-23T09:40:09.641Z,1006.51
2022-10-23T09:41:09.664Z,1006.49
2022-10-23T09:42:09.663Z,1006.44
2022-10-23T09:43:07.727Z,1006.42
2022-10-23T09:44:07.723Z,1006.43
2022-10-23T09:45:07.728Z,1006.41
2022-10-23T09:46:07.734Z,1006.39
2022-10-23T09:47:09.664Z,1006.35
2022-10-23T09:48:07.743Z,1006.36
2022-10-23T09:49:09.662Z,1006.36
2022-10-23T09:50:07.738Z,1006.39
2022-10-23T09:51:07.717Z,1006.39
2022-10-23T09:52:07.722Z,1006.35
2022-10-23T09:53:07.710Z,1006.38
2022-10-23T09:54:09.672Z,1006.33
2022-10-23T09:55:09.663Z,1006.34
2022-10-23T09:56:09.659Z,1006.28
2022-10-23T09:57:09.671Z,1006.31
2022-10-23T09:58:09.655Z,1006.24
2022-10-23T09:59:09.703Z,1006.24
2022-10-23T10:00:09.658Z,1006.23
2022-10-23T10:01:09.741Z,1006.21
2022-10-23T10:02:09.826Z,1006.24
2022-10-23T10:13:22.079Z,1006.19
2022-10-23T10:14:22.050Z,1006.19
2022-10-23T10:15:22.071Z,1006.21
2022-10-23T10:16:22.060Z,1006.22
2022-10-23T10:17:22.040Z,1006.24
2022-10-23T10:18:22.053Z,1006.19
2022-10-23T10:19:22.062Z,1006.19
2022-10-23T10:20:22.063Z,1006.16
2022-10-23T10:21:22.054Z,1006.17
2022-10-23T10:22:22.075Z,1006.12
2022-10-23T10:23:22.055Z,1006.11
2022-10-23T10:24:22.059Z,1006.11
2022-10-23T10:25:22.060Z,1006.09
2022-10-23T10:26:20.452Z,1006.06
2022-10-23T10:27:22.070Z,1006.09
2022-10-23T10:28:20.418Z,1006.07
2022-10-23T10:29:20.427Z,1006.04
2022-10-23T10:30:21.421Z,1006.06
2022-10-23T10:31:22.072Z,1006.02
2022-10-23T10:32:22.067Z,1005.98
2022-10-23T10:33:22.104Z,1006.00
2022-10-23T10:34:22.074Z,1005.98
2022-10-23T10:35:20.399Z,1005.96
2022-10-23T10:36:22.124Z,1005.96
2022-10-23T10:37:22.129Z,1005.96
2022-10-23T10:38:22.087Z,1005.94
2022-10-23T10:39:22.098Z,1005.96
2022-10-23T10:40:22.084Z,1005.92
2022-10-23T10:41:22.095Z,1005.89
2022-10-23T10:42:22.071Z,1005.87
2022-10-23T10:43:22.067Z,1005.87
2022-10-23T10:44:22.089Z,1005.85
2022-10-23T10:45:22.122Z,1005.86
2022-10-23T10:46:22.084Z,1005.83
2022-10-23T10:47:22.074Z,1005.86
2022-10-23T10:48:22.079Z,1005.84
2022-10-23T10:49:22.095Z,1005.87
2022-10-23T10:50:22.106Z,1005.84
2022-10-23T10:51:22.103Z,1005.87
2022-10-23T10:52:22.145Z,1005.85
2022-10-23T10:53:22.111Z,1005.87
2022-10-23T10:54:22.079Z,1005.86
2022-10-23T10:55:22.110Z,1005.87
2022-10-23T10:56:22.093Z,1005.84
2022-10-23T10:57:20.372Z,1005.84
2022-10-23T10:58:20.379Z,1005.81
2022-10-23T10:59:22.096Z,1005.77
2022-10-23T11:00:20.381Z,1005.75
2022-10-23T11:01:22.244Z,1005.75
2022-10-23T11:02:20.441Z,1005.72
2022-10-23T11:03:20.388Z,1005.71
2022-10-23T11:04:22.087Z,1005.66
2022-10-23T11:05:22.105Z,1005.62
2022-10-23T11:06:22.093Z,1005.54
2022-10-23T11:07:22.091Z,1005.58
2022-10-23T11:08:22.111Z,1005.51
2022-10-23T11:09:22.094Z,1005.50
2022-10-23T11:10:22.121Z,1005.46
2022-10-23T11:11:22.141Z,1005.42
2022-10-23T11:12:22.100Z,1005.41
2022-10-23T11:13:22.126Z,1005.39
2022-10-23T11:14:22.111Z,1005.34
2022-10-23T11:15:22.117Z,1005.36
2022-10-23T11:16:22.114Z,1005.34
2022-10-23T11:17:22.111Z,1005.30
2022-10-23T11:18:22.116Z,1005.32
2022-10-23T11:19:22.134Z,1005.31
2022-10-23T11:20:22.137Z,1005.32
2022-10-23T11:21:22.115Z,1005.27
2022-10-23T11:22:22.106Z,1005.29
2022-10-23T11:23:22.128Z,1005.26
2022-10-23T11:24:22.109Z,1005.27
2022-10-23T11:25:22.130Z,1005.24
2022-10-23T11:26:22.122Z,1005.27
2022-10-23T11:27:22.117Z,1005.18
2022-10-23T11:28:22.121Z,1005.17
2022-10-23T11:29:22.130Z,1005.14
2022-10-23T11:30:22.204Z,1005.15
2022-10-23T11:31:22.124Z,1005.12
2022-10-23T11:32:22.194Z,1005.10
2022-10-23T11:33:20.353Z,1005.05
2022-10-23T11:34:20.339Z,1005.07
2022-10-23T11:35:22.135Z,1005.04
2022-10-23T11:36:22.136Z,1005.05
2022-10-23T11:37:20.339Z,1005.00
2022-10-23T11:38:22.155Z,1004.96
2022-10-23T11:39:20.360Z,1004.97
2022-10-23T11:40:22.340Z,1004.91
2022-10-23T11:41:25.461Z,1004.90
2022-10-23T11:42:20.327Z,1004.86
2022-10-23T11:43:22.126Z,1004.84
2022-10-23T11:44:20.339Z,1004.81
2022-10-23T11:45:22.132Z,1004.83
2022-10-23T11:46:21.639Z,1004.79
2022-10-23T11:47:22.152Z,1004.77
2022-10-23T11:48:22.155Z,1004.79
2022-10-23T11:49:22.131Z,1004.81
2022-10-23T11:50:22.169Z,1004.77
2022-10-23T11:51:22.136Z,1004.72
2022-10-23T11:52:20.313Z,1004.67
2022-10-23T11:53:22.589Z,1004.68
2022-10-23T11:54:22.152Z,1004.66
2022-10-23T11:55:22.327Z,1004.65
2022-10-23T11:56:22.185Z,1004.59
2022-10-23T11:57:20.409Z,1004.63
2022-10-23T11:58:22.139Z,1004.60
2022-10-23T11:59:22.173Z,1004.60
2022-10-23T12:00:21.335Z,1004.58
2022-10-23T12:01:20.350Z,1004.57
2022-10-23T12:02:22.169Z,1004.58
2022-10-23T12:03:20.301Z,1004.56
2022-10-23T12:04:22.175Z,1004.50
2022-10-23T12:05:20.302Z,1004.49
2022-10-23T12:06:22.190Z,1004.51
2022-10-23T12:07:22.151Z,1004.48
2022-10-23T12:08:22.147Z,1004.45
2022-10-23T12:09:22.170Z,1004.43
2022-10-23T12:10:22.179Z,1004.42
2022-10-23T12:11:25.502Z,1004.34
2022-10-23T12:12:22.150Z,1004.31
2022-10-23T12:13:22.163Z,1004.22
2022-10-23T12:14:22.158Z,1004.16
2022-10-23T12:15:22.169Z,1004.13
2022-10-23T12:16:22.173Z,1004.10
2022-10-23T12:17:22.185Z,1004.11
2022-10-23T12:18:22.158Z,1004.15
2022-10-23T12:19:22.184Z,1004.13
2022-10-23T12:20:22.170Z,1004.08
2022-10-23T12:21:22.225Z,1004.07
2022-10-23T12:22:22.226Z,1004.01
2022-10-23T12:23:22.163Z,1003.98
2022-10-23T12:24:22.164Z,1003.98
2022-10-23T12:25:22.168Z,1003.90
2022-10-23T12:26:22.175Z,1003.95
2022-10-23T12:27:22.187Z,1003.94
2022-10-23T12:28:22.164Z,1003.98
2022-10-23T12:29:22.183Z,1004.00
2022-10-23T12:30:22.203Z,1003.97
2022-10-23T12:31:22.180Z,1003.91
2022-10-23T12:32:22.184Z,1003.92
2022-10-23T12:33:22.192Z,1003.93
2022-10-23T12:34:22.187Z,1003.94
2022-10-23T12:35:22.190Z,1003.94
2022-10-23T12:36:20.303Z,1003.94
2022-10-23T12:37:22.185Z,1003.93
2022-10-23T12:38:22.177Z,1003.93
2022-10-23T12:39:22.210Z,1003.91
2022-10-23T12:40:22.211Z,1003.93
2022-10-23T12:41:22.190Z,1003.88
2022-10-23T12:42:22.181Z,1003.87
2022-10-23T12:43:22.181Z,1003.79
2022-10-23T12:44:22.189Z,1003.78
2022-10-23T12:45:22.194Z,1003.75
2022-10-23T12:46:22.189Z,1003.72
2022-10-23T12:47:22.188Z,1003.70
2022-10-23T12:48:22.216Z,1003.64
2022-10-23T12:49:22.186Z,1003.60
2022-10-23T12:50:22.199Z,1003.60
2022-10-23T12:51:22.258Z,1003.57
2022-10-23T12:52:22.202Z,1003.51
2022-10-23T12:53:22.194Z,1003.46
2022-10-23T12:54:22.209Z,1003.43
2022-10-23T12:55:22.204Z,1003.39
2022-10-23T12:56:22.201Z,1003.38
2022-10-23T12:57:22.220Z,1003.32
2022-10-23T12:58:22.201Z,1003.32
2022-10-23T12:59:22.224Z,1003.29
2022-10-23T13:00:22.220Z,1003.30
2022-10-23T13:01:21.307Z,1003.32
2022-10-23T13:02:22.337Z,1003.28
2022-10-23T13:03:20.233Z,1003.28
2022-10-23T13:04:20.242Z,1003.25
2022-10-23T13:05:20.238Z,1003.18
2022-10-23T13:06:21.713Z,1003.11
2022-10-23T13:07:20.214Z,1003.07
2022-10-23T13:08:20.201Z,1003.05
2022-10-23T13:09:20.204Z,1003.01
2022-10-23T13:10:21.721Z,1003.04
2022-10-23T13:11:21.245Z,1003.07
2022-10-23T13:12:20.190Z,1003.15
2022-10-23T13:13:21.718Z,1003.20
2022-10-23T13:14:20.187Z,1003.21
2022-10-23T13:15:21.707Z,1003.22
2022-10-23T13:16:21.231Z,1003.25
2022-10-23T13:17:21.709Z,1003.21
2022-10-23T13:18:21.234Z,1003.25
2022-10-23T13:19:21.779Z,1003.28
2022-10-23T13:20:21.726Z,1003.26
2022-10-23T13:21:21.747Z,1003.24
2022-10-23T13:22:21.230Z,1003.28
2022-10-23T13:23:20.180Z,1003.29
2022-10-23T13:24:20.183Z,1003.24
2022-10-23T13:25:20.169Z,1003.20
2022-10-23T13:26:21.754Z,1003.20
2022-10-23T13:27:20.171Z,1003.20
2022-10-23T13:28:20.178Z,1003.15
2022-10-23T13:29:20.225Z,1003.14
2022-10-23T13:30:20.162Z,1003.12
2022-10-23T13:31:21.753Z,1003.12
2022-10-23T13:32:21.763Z,1003.14
2022-10-23T13:33:20.162Z,1003.14
2022-10-23T13:34:21.745Z,1003.18
2022-10-23T13:35:21.963Z,1003.25
2022-10-23T13:36:21.775Z,1003.24
2022-10-23T13:37:20.146Z,1003.19
2022-10-23T13:38:20.154Z,1003.18
2022-10-23T13:39:21.790Z,1003.20
2022-10-23T13:40:21.736Z,1003.11
2022-10-23T13:41:21.748Z,1003.08
2022-10-23T13:42:21.744Z,1003.08
2022-10-23T13:43:21.734Z,1003.05
2022-10-23T13:44:21.739Z,1002.96
2022-10-23T13:45:21.773Z,1002.95
2022-10-23T13:46:21.764Z,1002.85
2022-10-23T13:47:21.746Z,1002.80
2022-10-23T13:48:21.780Z,1002.77
2022-10-23T13:49:21.738Z,1002.80
2022-10-23T13:50:21.768Z,1002.75
2022-10-23T13:51:21.780Z,1002.73
2022-10-23T13:52:21.757Z,1002.72
2022-10-23T13:53:21.771Z,1002.69
2022-10-23T13:54:21.840Z,1002.63
2022-10-23T13:55:21.762Z,1002.57
2022-10-23T13:56:21.745Z,1002.50
2022-10-23T13:57:21.758Z,1002.46
2022-10-23T13:58:21.780Z,1002.43
2022-10-23T13:59:21.748Z,1002.35
2022-10-23T14:00:21.764Z,1002.22
2022-10-23T14:01:21.887Z,1002.15
2022-10-23T14:02:21.986Z,1002.07
2022-10-23T14:03:21.782Z,1002.08
2022-10-23T14:04:21.763Z,1002.06
2022-10-23T14:05:21.752Z,1002.11
2022-10-23T14:06:21.768Z,1002.10
2022-10-23T14:07:21.769Z,1002.17
2022-10-23T14:08:21.769Z,1002.12
2022-10-23T14:09:20.089Z,1002.15
2022-10-23T14:10:24.520Z,1002.13
2022-10-23T14:11:20.148Z,1002.09
2022-10-23T14:12:21.792Z,1002.10
2022-10-23T14:13:21.780Z,1002.10
2022-10-23T14:14:21.778Z,1002.10
2022-10-23T14:15:21.766Z,1002.17
2022-10-23T14:16:21.766Z,1002.15
2022-10-23T14:17:21.777Z,1002.18
2022-10-23T14:18:21.777Z,1002.18
2022-10-23T14:19:21.789Z,1002.16
2022-10-23T14:20:25.647Z,1002.19
2022-10-23T14:21:21.778Z,1002.22
2022-10-23T14:22:21.812Z,1002.23
2022-10-23T14:23:21.785Z,1002.31
2022-10-23T14:24:21.782Z,1002.25
2022-10-23T14:25:21.771Z,1002.18
2022-10-23T14:26:21.779Z,1002.15
2022-10-23T14:27:21.802Z,1002.10
2022-10-23T14:28:20.076Z,1002.07
2022-10-23T14:29:24.075Z,1002.02
2022-10-23T14:30:20.051Z,1001.99
2022-10-23T14:31:21.789Z,1002.01
2022-10-23T14:32:20.047Z,1002.01
2022-10-23T14:33:20.046Z,1002.02
2022-10-23T14:34:20.052Z,1001.99
2022-10-23T14:35:21.796Z,1001.99
2022-10-23T14:36:21.809Z,1001.98
2022-10-23T14:37:20.042Z,1002.00
2022-10-23T14:38:20.064Z,1002.00
2022-10-23T14:39:21.794Z,1002.10
2022-10-23T14:40:20.039Z,1002.07
2022-10-23T14:41:21.798Z,1002.09
2022-10-23T14:42:20.033Z,1002.08
2022-10-23T14:43:21.797Z,1002.07
2022-10-23T14:44:20.032Z,1002.11
2022-10-23T14:45:21.790Z,1002.08
2022-10-23T14:46:21.814Z,1002.00
2022-10-23T14:47:20.027Z,1002.01
2022-10-23T14:48:21.798Z,1001.97
2022-10-23T14:49:20.027Z,1001.90
2022-10-23T14:50:21.828Z,1001.88
2022-10-23T14:51:21.328Z,1001.89
2022-10-23T14:52:21.813Z,1001.72
2022-10-23T14:53:21.812Z,1001.70
2022-10-23T14:54:21.797Z,1001.64
2022-10-23T14:55:21.806Z,1001.59
2022-10-23T14:56:21.803Z,1001.56
2022-10-23T14:57:21.839Z,1001.50
2022-10-23T14:58:21.827Z,1001.50
2022-10-23T14:59:21.812Z,1001.56
2022-10-23T15:00:21.801Z,1001.57
2022-10-23T15:01:22.052Z,1001.61
2022-10-23T15:02:21.825Z,1001.69
2022-10-23T15:03:21.851Z,1001.67
2022-10-23T15:04:21.828Z,1001.60
2022-10-23T15:05:21.825Z,1001.60
2022-10-23T15:06:21.809Z,1001.61
2022-10-23T15:07:21.837Z,1001.65
2022-10-23T15:08:21.019Z,1001.57
2022-10-23T15:09:19.982Z,1001.54
2022-10-23T15:10:20.988Z,1001.57
2022-10-23T15:11:21.835Z,1001.58
2022-10-23T15:12:21.835Z,1001.58
2022-10-23T15:13:19.983Z,1001.52
2022-10-23T15:14:21.822Z,1001.50
2022-10-23T15:15:21.827Z,1001.49
2022-10-23T15:16:21.833Z,1001.52
2022-10-23T15:17:21.838Z,1001.53
2022-10-23T15:18:21.853Z,1001.47
2022-10-23T15:19:21.848Z,1001.46
2022-10-23T15:20:21.837Z,1001.43
2022-10-23T15:21:21.853Z,1001.44
2022-10-23T15:22:22.834Z,1001.42
2022-10-23T15:23:21.858Z,1001.47
2022-10-23T15:24:21.834Z,1001.47
2022-10-23T15:25:21.834Z,1001.51
2022-10-23T15:26:21.841Z,1001.49
2022-10-23T15:27:21.834Z,1001.52
2022-10-23T15:28:21.844Z,1001.50
2022-10-23T15:29:21.828Z,1001.49
2022-10-23T15:30:21.836Z,1001.51
2022-10-23T15:31:21.855Z,1001.49
2022-10-23T15:32:21.846Z,1001.46
2022-10-23T15:33:21.840Z,1001.42
2022-10-23T15:34:21.834Z,1001.39
2022-10-23T15:35:21.912Z,1001.37
2022-10-23T15:36:21.854Z,1001.36
2022-10-23T15:37:21.860Z,1001.35
2022-10-23T15:38:21.865Z,1001.37
2022-10-23T15:39:19.929Z,1001.35
2022-10-23T15:40:19.920Z,1001.35
2022-10-23T15:41:19.927Z,1001.28
2022-10-23T15:42:21.862Z,1001.24
2022-10-23T15:43:19.901Z,1001.26
2022-10-23T15:44:21.857Z,1001.23
2022-10-23T15:45:19.904Z,1001.19
2022-10-23T15:46:21.842Z,1001.19
2022-10-23T15:47:21.892Z,1001.18
2022-10-23T15:48:21.864Z,1001.18
2022-10-23T15:49:21.876Z,1001.14
2022-10-23T15:50:21.853Z,1001.13
2022-10-23T15:51:21.863Z,1001.14
2022-10-23T15:52:21.847Z,1001.08
2022-10-23T15:53:21.854Z,1001.11
2022-10-23T15:54:21.867Z,1001.09
2022-10-23T15:55:21.865Z,1001.08
2022-10-23T15:56:21.859Z,1001.06
2022-10-23T15:57:19.868Z,1000.98
2022-10-23T15:58:21.877Z,1000.96
2022-10-23T15:59:22.377Z,1000.92
2022-10-23T16:00:21.471Z,1000.97
2022-10-23T16:12:31.929Z,1000.79
2022-10-23T16:13:30.398Z,1000.75
2022-10-23T16:14:31.903Z,1000.75
2022-10-23T16:15:31.888Z,1000.79
2022-10-23T16:16:31.916Z,1000.78
2022-10-23T16:17:31.896Z,1000.76
2022-10-23T16:18:31.897Z,1000.73
2022-10-23T16:19:30.331Z,1000.73
2022-10-23T16:20:31.932Z,1000.73
2022-10-23T16:21:30.323Z,1000.73
2022-10-23T16:22:31.905Z,1000.70
2022-10-23T16:23:31.895Z,1000.65
2022-10-23T16:24:31.895Z,1000.63
2022-10-23T16:26:30.307Z,1000.51
2022-10-23T16:27:31.903Z,1000.47